Time;durP1;ratioP1;P1;durP2;ratioP2;P2;SDS_P1;SDS_P2;PMS_P1;PMS_P2;Temp;Humidity;BMP_temperature;BMP_pressure;BME280_temperature;BME280_humidity;BME280_pressure;Samples;Min_cycle;Max_cycle;Signal;HPM_P1;HPM_P2
2023/12/21 05:33:16;;;;;;;10.32;5.78;;;;;;;6.57;72.66;99998.16;5577135;31;80900;-52
2023/12/21 05:36:23;;;;;;;9.60;5.40;;;;;;;6.57;72.66;99998.16;5582102;31;33362;-52
2023/12/21 05:39:26;;;;;;;9.43;5.60;;;;;;;5.94;94.42;99995.53;5583158;31;33722;-53
2023/12/21 05:42:28;;;;;;;8.75;5.55;;;;;;;6.15;100.00;100000.94;5582852;31;33597;-53
2023/12/21 05:45:30;;;;;;;9.38;5.53;;;;;;;6.08;77.75;99999.31;5582961;32;33761;-53
2023/12/21 05:48:33;;;;;;;7.30;5.20;;;;;;;6.02;85.74;100000.34;5576935;31;33002;-53
2023/12/21 05:51:35;;;;;;;9.68;5.65;;;;;;;6.02;97.54;99997.69;5575724;31;33667;-52
2023/12/21 05:54:38;;;;;;;9.63;5.87;;;;;;;6.12;100.00;99997.75;5582952;32;34214;-52
2023/12/21 05:57:41;;;;;;;9.80;6.10;;;;;;;6.02;80.15;99994.22;5583051;31;34205;-52
2023/12/21 06:00:43;;;;;;;12.20;7.50;;;;;;;6.03;80.34;99995.84;5582434;32;33938;-53
2023/12/21 06:03:46;;;;;;;9.70;7.12;;;;;;;5.98;79.01;99995.81;5583672;31;35142;-52
2023/12/21 06:06:48;;;;;;;10.63;7.12;;;;;;;5.92;77.86;99988.84;5583515;31;33688;-52
2023/12/21 06:09:52;;;;;;;11.57;7.70;;;;;;;5.70;77.72;99981.03;5581108;32;33662;-53
2023/12/21 06:12:54;;;;;;;12.20;7.78;;;;;;;5.64;79.11;99978.31;5563412;32;34362;-52
2023/12/21 06:15:56;;;;;;;10.70;7.90;;;;;;;5.67;78.07;99979.66;5565267;32;33643;-53
2023/12/21 06:18:59;;;;;;;14.00;9.27;;;;;;;5.70;77.40;99976.50;5571718;32;33681;-52
2023/12/21 06:22:02;;;;;;;14.30;9.88;;;;;;;5.68;77.64;99980.47;5583414;32;34381;-52
2023/12/21 06:25:05;;;;;;;15.32;10.45;;;;;;;5.70;78.87;99973.84;5583318;31;33737;-52
2023/12/21 06:28:07;;;;;;;13.90;10.70;;;;;;;5.69;77.62;99960.78;5580558;31;33594;-53
2023/12/21 06:31:14;;;;;;;15.52;11.50;;;;;;;5.50;80.04;99966.53;5580537;31;33613;-52
2023/12/21 06:34:17;;;;;;;20.25;12.65;;;;;;;5.68;81.44;99964.50;5583466;31;34302;-52
2023/12/21 06:37:19;;;;;;;15.85;11.70;;;;;;;5.45;80.46;99963.03;5582193;32;34157;-53
2023/12/21 06:40:22;;;;;;;19.65;12.35;;;;;;;5.47;80.06;99964.41;5563388;32;33099;-53
2023/12/21 06:43:25;;;;;;;19.35;13.43;;;;;;;5.44;84.12;99958.78;5555814;32;33590;-52
2023/12/21 06:46:28;;;;;;;18.05;13.35;;;;;;;5.53;80.94;99951.91;5552236;32;33581;-53
2023/12/21 06:49:30;;;;;;;16.77;12.63;;;;;;;5.61;78.69;99967.41;5560799;32;33398;-52
2023/12/21 06:52:32;;;;;;;15.63;12.05;;;;;;;5.41;82.66;99957.44;5566583;32;34249;-53
2023/12/21 06:55:35;;;;;;;17.15;11.80;;;;;;;5.60;79.78;99952.50;5569983;32;34274;-52
2023/12/21 06:58:38;;;;;;;18.58;12.63;;;;;;;5.48;96.46;99950.03;5560573;32;33915;-53
2023/12/21 07:01:40;;;;;;;19.00;13.60;;;;;;;5.35;83.30;99948.63;5558698;32;34034;-52
2023/12/21 07:04:43;;;;;;;19.15;13.98;;;;;;;5.37;79.31;99948.37;5550808;32;33652;-52
2023/12/21 07:07:45;;;;;;;18.25;13.90;;;;;;;5.25;81.33;99942.44;5562408;32;34282;-53
2023/12/21 07:10:48;;;;;;;20.52;13.85;;;;;;;5.36;81.90;99931.63;5568225;32;33803;-53
2023/12/21 07:13:50;;;;;;;24.83;15.63;;;;;;;5.36;79.67;99941.44;5566429;32;33781;-52
2023/12/21 07:16:52;;;;;;;24.40;17.25;;;;;;;5.37;79.96;99948.37;5554138;32;33567;-52
2023/12/21 07:19:54;;;;;;;21.33;16.80;;;;;;;5.31;82.46;99949.41;5561316;32;33547;-52
2023/12/21 07:22:57;;;;;;;20.33;15.18;;;;;;;5.30;87.74;99935.31;5569374;32;33696;-55
2023/12/21 07:25:59;;;;;;;21.80;16.10;;;;;;;5.44;93.63;99930.34;5568443;32;34322;-53
2023/12/21 07:29:02;;;;;;;18.62;15.27;;;;;;;5.53;100.00;99936.78;5561819;32;33567;-54
2023/12/21 07:32:05;;;;;;;21.65;16.73;;;;;;;5.45;91.23;99928.47;5565576;32;33597;-52
2023/12/21 07:35:08;;;;;;;25.10;16.92;;;;;;;5.70;100.00;99917.19;5568562;32;33360;-53
2023/12/21 07:38:10;;;;;;;25.20;17.75;;;;;;;5.57;83.09;99929.88;5566147;32;33688;-53
2023/12/21 07:41:13;;;;;;;24.15;16.15;;;;;;;5.59;81.49;99935.72;5558103;32;33589;-52
2023/12/21 07:44:16;;;;;;;28.87;20.00;;;;;;;5.89;100.00;99918.31;5553903;32;33619;-52
2023/12/21 07:47:19;;;;;;;29.90;20.98;;;;;;;5.99;100.00;99922.91;5563740;32;33599;-53
2023/12/21 07:50:21;;;;;;;30.60;21.83;;;;;;;5.96;100.00;99918.94;5566134;32;34442;-54
2023/12/21 07:53:23;;;;;;;28.50;21.08;;;;;;;6.34;100.00;99925.69;5550135;32;33610;-54
2023/12/21 07:56:26;;;;;;;28.80;21.87;;;;;;;6.66;100.00;99927.34;5554588;32;33596;-52
2023/12/21 07:59:28;;;;;;;29.35;22.50;;;;;;;6.89;100.00;99942.00;5562755;32;33583;-53
2023/12/21 08:02:31;;;;;;;28.58;21.92;;;;;;;7.01;100.00;99918.53;5569196;32;33771;-53
2023/12/21 08:05:33;;;;;;;27.75;21.45;;;;;;;6.72;100.00;99930.78;5563347;32;34375;-52
2023/12/21 08:08:35;;;;;;;26.62;20.08;;;;;;;6.79;100.00;99928.69;5554190;32;34282;-53
2023/12/21 08:11:49;;;;;;;28.73;21.87;;;;;;;6.81;100.00;99924.69;5568928;32;33660;-53
2023/12/21 08:14:51;;;;;;;25.33;20.27;;;;;;;6.51;85.31;99914.78;5561477;32;34378;-52
2023/12/21 08:17:56;;;;;;;29.55;21.95;;;;;;;6.52;100.00;99911.09;5553453;32;34320;-53
2023/12/21 08:20:59;;;;;;;30.05;20.83;;;;;;;6.67;100.00;99909.50;5569153;32;33779;-53
2023/12/21 08:24:01;;;;;;;26.85;22.35;;;;;;;6.72;100.00;99896.16;5569037;32;33520;-53
2023/12/21 08:27:06;;;;;;;27.37;20.90;;;;;;;6.76;96.46;99895.37;5560710;32;33534;-53
2023/12/21 08:30:09;;;;;;;29.52;21.50;;;;;;;6.57;100.00;99883.66;5556309;32;33679;-53
2023/12/21 08:33:12;;;;;;;30.00;20.73;;;;;;;6.44;90.53;99887.63;5549033;32;33819;-53
2023/12/21 08:36:14;;;;;;;27.05;20.77;;;;;;;6.47;100.00;99887.09;5560590;32;33687;-53
2023/12/21 08:39:16;;;;;;;28.65;21.40;;;;;;;6.63;100.00;99890.59;5555235;32;34348;-53
2023/12/21 08:42:19;;;;;;;31.98;21.58;;;;;;;6.89;100.00;99895.91;5557542;32;33673;-55
2023/12/21 08:45:22;;;;;;;30.33;21.62;;;;;;;6.86;100.00;99899.91;5546799;32;33296;-53
2023/12/21 08:48:24;;;;;;;32.90;22.50;;;;;;;6.68;85.36;99911.09;5553341;32;32150;-53
2023/12/21 08:51:27;;;;;;;26.55;19.52;;;;;;;6.66;83.03;99902.56;5549765;32;33659;-53
2023/12/21 08:54:29;;;;;;;25.08;19.37;;;;;;;6.61;99.44;99891.91;5555229;32;33609;-54
2023/12/21 08:57:36;;;;;;;27.33;19.80;;;;;;;6.88;100.00;99891.63;5551566;32;33706;-53
2023/12/21 09:00:38;;;;;;;29.95;20.52;;;;;;;7.01;100.00;99894.56;5558830;32;33637;-53
2023/12/21 09:03:40;;;;;;;26.25;19.77;;;;;;;7.34;100.00;99875.59;5568475;32;33638;-53
2023/12/21 09:06:43;;;;;;;26.15;19.52;;;;;;;7.44;100.00;99872.88;5554161;32;33640;-53
2023/12/21 09:09:45;;;;;;;28.15;18.55;;;;;;;7.48;89.98;99871.25;5565169;32;34216;-53
2023/12/21 09:12:48;;;;;;;20.92;16.55;;;;;;;7.66;100.00;99880.56;5566592;32;33672;-53
2023/12/21 09:15:50;;;;;;;24.12;17.58;;;;;;;7.75;99.95;99879.72;5562903;32;33591;-52
2023/12/21 09:18:54;;;;;;;20.83;15.95;;;;;;;7.99;100.00;99868.41;5552623;32;33050;-53
2023/12/21 09:21:57;;;;;;;20.95;15.55;;;;;;;8.20;100.00;99869.06;5548842;32;33579;-53
2023/12/21 09:25:01;;;;;;;20.65;15.90;;;;;;;8.51;100.00;99864.37;5557001;32;34113;-54
2023/12/21 09:28:04;;;;;;;20.73;16.25;;;;;;;8.43;84.61;99856.94;5564585;32;34371;-53
2023/12/21 09:31:07;;;;;;;21.08;15.65;;;;;;;8.09;83.53;99844.31;5548382;32;33568;-53
2023/12/21 09:34:11;;;;;;;23.48;16.00;;;;;;;7.82;78.77;99855.41;5557593;32;33700;-53
2023/12/21 09:37:14;;;;;;;20.52;15.52;;;;;;;7.75;79.00;99841.56;5567599;32;34314;-54
2023/12/21 09:40:16;;;;;;;21.83;15.85;;;;;;;7.87;88.90;99827.88;5561010;32;33821;-53
2023/12/21 09:43:21;;;;;;;22.35;15.35;;;;;;;8.14;100.00;99835.47;5566498;32;33598;-55
2023/12/21 09:46:25;;;;;;;19.85;15.10;;;;;;;8.24;95.55;99824.72;5559563;32;33610;-53
2023/12/21 09:49:30;;;;;;;19.65;15.02;;;;;;;8.36;100.00;99821.69;5553873;32;33839;-53
2023/12/21 09:52:33;;;;;;;20.15;14.75;;;;;;;8.94;100.00;99813.75;5564717;32;33569;-53
2023/12/21 09:55:38;;;;;;;21.12;14.00;;;;;;;8.74;93.11;99793.38;5562077;32;33700;-52
2023/12/21 09:58:42;;;;;;;18.15;11.15;;;;;;;8.77;96.91;99792.78;5553256;32;34305;-53
2023/12/21 10:01:45;;;;;;;19.50;13.32;;;;;;;8.70;97.37;99793.09;5556731;32;32237;-53
2023/12/21 10:04:49;;;;;;;21.83;14.55;;;;;;;8.87;100.00;99787.34;5556235;32;33545;-53
2023/12/21 10:07:51;;;;;;;20.27;14.73;;;;;;;8.58;80.57;99783.91;5549992;32;33634;-54
2023/12/21 10:10:57;;;;;;;17.58;13.73;;;;;;;8.45;78.86;99780.00;5547956;32;33544;-53
2023/12/21 10:14:01;;;;;;;20.25;14.25;;;;;;;8.56;100.00;99767.34;5549930;32;31894;-53
2023/12/21 10:17:09;;;;;;;17.05;12.37;;;;;;;8.89;100.00;99757.66;5555423;32;33790;-53
2023/12/21 10:20:13;;;;;;;16.60;11.70;;;;;;;8.66;88.12;99749.34;5557242;32;34244;-53
2023/12/21 10:23:16;;;;;;;15.55;11.43;;;;;;;8.64;79.21;99740.00;5559248;32;33670;-53
2023/12/21 10:26:18;;;;;;;16.05;11.85;;;;;;;8.74;96.36;99731.09;5553370;32;33574;-52
2023/12/21 10:29:21;;;;;;;20.95;11.48;;;;;;;8.74;98.63;99723.88;5555317;32;34169;-53
2023/12/21 10:32:23;;;;;;;16.23;12.07;;;;;;;8.83;81.37;99719.50;5550045;32;34346;-54
2023/12/21 10:35:28;;;;;;;16.85;12.70;;;;;;;8.79;77.56;99718.47;5549526;32;33197;-53
2023/12/21 10:38:31;;;;;;;18.05;12.32;;;;;;;8.75;76.76;99706.75;5550247;32;34322;-53
2023/12/21 10:41:34;;;;;;;15.32;11.40;;;;;;;8.75;77.86;99690.72;5547523;32;33801;-53
2023/12/21 10:44:37;;;;;;;20.92;12.95;;;;;;;8.80;85.45;99685.31;5550299;32;33617;-53
2023/12/21 10:47:46;;;;;;;23.05;13.52;;;;;;;8.76;77.16;99673.59;5552416;32;33572;-53
2023/12/21 10:50:54;;;;;;;17.85;13.80;;;;;;;8.58;75.89;99645.75;5555441;32;33695;-53
2023/12/21 10:53:58;;;;;;;18.70;13.15;;;;;;;8.64;77.34;99625.94;5561984;32;34420;-53
2023/12/21 10:57:00;;;;;;;17.02;12.43;;;;;;;8.63;77.94;99629.66;5551764;32;33811;-53
2023/12/21 11:00:04;;;;;;;18.35;12.98;;;;;;;8.66;77.03;99601.59;5552861;32;33618;-53
2023/12/21 11:03:09;;;;;;;16.35;12.43;;;;;;;8.76;80.34;99603.34;5557694;32;34397;-54
2023/12/21 11:06:14;;;;;;;18.92;12.95;;;;;;;8.89;78.42;99578.56;5550322;32;33664;-54
2023/12/21 11:09:19;;;;;;;16.80;12.60;;;;;;;8.89;76.59;99581.25;5549313;32;34380;-54
2023/12/21 11:12:22;;;;;;;16.75;12.57;;;;;;;8.98;77.47;99576.06;5547584;32;33826;-53
2023/12/21 11:15:25;;;;;;;19.12;12.80;;;;;;;8.97;77.15;99561.88;5549860;32;34335;-53
2023/12/21 11:18:27;;;;;;;16.25;11.43;;;;;;;8.86;76.36;99557.75;5555585;32;33706;-53
2023/12/21 11:21:31;;;;;;;18.15;12.35;;;;;;;8.95;75.30;99550.69;5559134;32;33277;-53
2023/12/21 11:24:33;;;;;;;15.57;11.20;;;;;;;9.00;75.22;99539.13;5549721;32;34319;-55
2023/12/21 11:27:36;;;;;;;15.00;11.30;;;;;;;8.94;75.23;99520.50;5556004;32;33685;-53
2023/12/21 11:30:38;;;;;;;14.23;10.15;;;;;;;9.07;75.83;99524.31;5551426;31;33735;-54
2023/12/21 11:33:43;;;;;;;14.23;10.82;;;;;;;9.21;74.10;99523.59;5556978;31;32495;-53
2023/12/21 11:36:46;;;;;;;14.05;10.10;;;;;;;9.18;77.36;99522.28;5557738;32;33659;-53
2023/12/21 11:39:56;;;;;;;14.80;10.38;;;;;;;9.12;74.78;99512.75;5549837;32;33583;-52
2023/12/21 11:43:00;;;;;;;17.05;10.70;;;;;;;8.99;75.94;99503.59;5552199;32;33709;-53
2023/12/21 11:46:03;;;;;;;15.18;10.20;;;;;;;9.07;79.08;99491.41;5549361;32;33759;-53
2023/12/21 11:49:09;;;;;;;17.10;10.75;;;;;;;9.18;76.34;99482.97;5548419;32;33791;-53
2023/12/21 11:52:22;;;;;;;12.77;9.20;;;;;;;9.11;74.49;99484.44;5550160;32;33711;-53
2023/12/21 11:55:26;;;;;;;15.05;10.70;;;;;;;9.06;82.73;99474.59;5549725;32;34393;-52
2023/12/21 11:58:28;;;;;;;15.48;10.48;;;;;;;9.15;74.32;99472.84;5564956;32;34331;-53
2023/12/21 12:01:33;;;;;;;14.00;10.07;;;;;;;9.30;74.61;99457.63;5569013;32;33319;-53
2023/12/21 12:04:36;;;;;;;14.13;10.18;;;;;;;9.24;74.46;99451.59;5568507;32;33551;-53
2023/12/21 12:07:41;;;;;;;14.65;10.60;;;;;;;9.21;74.65;99460.19;5569113;32;34238;-53
2023/12/21 12:10:43;;;;;;;19.65;10.63;;;;;;;9.11;73.34;99447.00;5569143;32;34339;-53
2023/12/21 12:13:45;;;;;;;16.40;10.75;;;;;;;9.08;74.82;99439.56;5569218;32;34283;-53
2023/12/21 12:16:49;;;;;;;13.73;10.25;;;;;;;9.21;80.23;99430.00;5568951;32;33644;-53
2023/12/21 12:19:55;;;;;;;16.60;10.55;;;;;;;9.26;75.53;99424.53;5569018;32;33865;-53
2023/12/21 12:22:57;;;;;;;;;;;;;;;9.18;75.11;99408.09;5569440;32;34367;-53
2023/12/21 12:26:02;;;;;;;16.58;11.52;;;;;;;9.25;78.55;99402.34;5569112;32;34656;-53
2023/12/21 12:29:04;;;;;;;14.25;10.98;;;;;;;9.06;76.03;99397.06;5565827;32;33728;-54
2023/12/21 12:32:07;;;;;;;15.27;11.32;;;;;;;9.10;74.93;99389.25;5549506;32;33649;-53
2023/12/21 12:35:10;;;;;;;19.23;12.32;;;;;;;9.14;87.97;99390.25;5549609;32;33709;-53
2023/12/21 12:38:14;;;;;;;15.20;11.38;;;;;;;9.24;88.34;99384.72;5550644;32;33854;-53
2023/12/21 12:41:21;;;;;;;17.58;12.70;;;;;;;9.36;80.81;99374.31;5567220;32;34342;-53
2023/12/21 12:44:25;;;;;;;19.40;13.68;;;;;;;9.08;76.66;99360.13;5568062;32;33643;-54
2023/12/21 12:47:27;;;;;;;16.92;12.45;;;;;;;9.09;80.81;99358.25;5569158;32;34610;-53
2023/12/21 12:50:30;;;;;;;17.95;12.55;;;;;;;8.98;78.65;99346.16;5569057;32;33844;-53
2023/12/21 12:53:33;;;;;;;19.23;12.90;;;;;;;8.97;78.86;99348.03;5569124;32;33312;-53
2023/12/21 12:56:46;;;;;;;16.52;12.60;;;;;;;8.97;77.99;99325.84;5568505;32;33272;-53
2023/12/21 12:59:49;;;;;;;16.95;12.43;;;;;;;9.05;77.97;99309.94;5568996;32;32243;-53
2023/12/21 13:02:51;;;;;;;16.15;11.88;;;;;;;9.21;79.55;99301.63;5568664;32;33857;-53
2023/12/21 13:05:53;;;;;;;14.95;10.88;;;;;;;9.09;76.78;99294.09;5569054;32;33622;-53
2023/12/21 13:09:09;;;;;;;17.30;11.90;;;;;;;8.89;78.34;99301.41;5568638;31;32273;-53
2023/12/21 13:12:12;;;;;;;16.33;10.77;;;;;;;8.88;77.72;99283.00;5568897;32;33686;-52
2023/12/21 13:15:15;;;;;;;19.02;11.65;;;;;;;9.02;83.76;99270.44;5568513;32;33618;-53
2023/12/21 13:18:18;;;;;;;16.10;11.77;;;;;;;9.00;79.90;99264.56;5568801;32;33622;-53
2023/12/21 13:21:20;;;;;;;15.00;10.68;;;;;;;8.99;76.45;99260.31;5568663;32;33735;-53
2023/12/21 13:24:22;;;;;;;15.55;10.93;;;;;;;8.89;78.11;99255.16;5568667;32;33617;-54
2023/12/21 13:27:25;;;;;;;16.77;12.10;;;;;;;8.83;87.94;99235.75;5568794;32;34347;-53
2023/12/21 13:30:27;;;;;;;19.10;11.57;;;;;;;8.82;82.99;99231.50;5568181;32;34402;-53
2023/12/21 13:33:30;;;;;;;15.85;11.52;;;;;;;8.85;82.32;99212.22;5568502;32;33802;-53
2023/12/21 13:36:33;;;;;;;14.93;10.52;;;;;;;8.79;78.95;99201.91;5568353;32;33605;-54
2023/12/21 13:39:36;;;;;;;15.05;11.55;;;;;;;8.75;86.81;99195.59;5568350;32;34115;-55
2023/12/21 13:42:39;;;;;;;14.68;11.65;;;;;;;8.89;80.24;99193.69;5568295;32;34509;-53
2023/12/21 13:45:41;;;;;;;16.55;12.27;;;;;;;8.77;79.35;99193.41;5568427;32;33797;-53
2023/12/21 13:48:43;;;;;;;15.05;11.43;;;;;;;8.79;79.09;99177.87;5567778;32;34326;-53
2023/12/21 13:51:46;;;;;;;14.63;10.73;;;;;;;8.74;79.02;99170.75;5568300;32;33896;-54
2023/12/21 13:54:48;;;;;;;15.85;10.93;;;;;;;8.54;78.96;99163.09;5570157;32;33609;-53
2023/12/21 13:57:50;;;;;;;15.48;11.38;;;;;;;8.54;78.59;99155.09;5570513;32;34358;-53
2023/12/21 14:00:53;;;;;;;13.68;10.15;;;;;;;8.62;78.46;99139.19;5570232;32;33703;-53
2023/12/21 14:03:57;;;;;;;13.55;10.13;;;;;;;8.79;76.69;99146.59;5570615;32;33723;-53
2023/12/21 14:06:59;;;;;;;17.23;11.18;;;;;;;8.76;76.41;99136.50;5570264;32;34390;-53
2023/12/21 14:10:02;;;;;;;15.05;11.35;;;;;;;8.78;75.00;99149.56;5570509;32;33741;-53
2023/12/21 14:13:05;;;;;;;16.62;11.48;;;;;;;8.65;76.73;99129.78;5569851;32;34199;-53
2023/12/21 14:16:07;;;;;;;18.45;11.05;;;;;;;8.71;77.93;99131.28;5570336;32;34260;-53
2023/12/21 14:19:09;;;;;;;15.00;11.38;;;;;;;8.78;76.91;99133.53;5570213;32;33626;-53
2023/12/21 14:22:12;;;;;;;17.65;11.90;;;;;;;8.76;75.50;99128.47;5570403;32;34370;-53
2023/12/21 14:25:15;;;;;;;16.45;11.70;;;;;;;8.79;76.05;99125.22;5570181;32;34379;-53
2023/12/21 14:28:18;;;;;;;16.87;11.57;;;;;;;8.71;75.88;99131.28;5570433;32;34317;-53
2023/12/21 14:31:20;;;;;;;15.52;11.38;;;;;;;8.66;75.44;99126.81;5570213;32;33745;-53
2023/12/21 14:34:22;;;;;;;15.20;10.20;;;;;;;8.65;76.62;99127.13;5570194;32;34341;-53
2023/12/21 14:37:25;;;;;;;15.90;10.48;;;;;;;8.67;75.67;99132.94;5570285;32;34358;-53
2023/12/21 14:40:28;;;;;;;14.73;10.20;;;;;;;8.72;76.40;99129.38;5570269;32;34423;-53
2023/12/21 14:43:33;;;;;;;14.77;10.30;;;;;;;8.77;76.88;99116.69;5570241;32;33243;-53
2023/12/21 14:46:39;;;;;;;14.05;10.65;;;;;;;8.80;77.37;99116.09;5570124;32;33788;-54
2023/12/21 14:49:41;;;;;;;15.45;10.73;;;;;;;8.81;77.61;99104.34;5568669;32;33745;-53
2023/12/21 14:52:44;;;;;;;16.98;10.75;;;;;;;8.88;77.13;99102.03;5569692;32;33740;-53
2023/12/21 14:55:48;;;;;;;13.35;9.70;;;;;;;8.87;76.18;99095.13;5569720;32;33629;-53
2023/12/21 14:58:51;;;;;;;16.95;11.23;;;;;;;8.80;76.26;99108.09;5569728;32;33699;-53
2023/12/21 15:01:53;;;;;;;14.00;10.32;;;;;;;8.84;80.75;99103.75;5570141;32;33699;-53
2023/12/21 15:04:56;;;;;;;13.52;10.27;;;;;;;8.86;78.07;99093.53;5569413;32;33735;-53
2023/12/21 15:07:58;;;;;;;13.85;10.52;;;;;;;8.78;78.12;99080.88;5570070;32;33654;-53
2023/12/21 15:11:01;;;;;;;15.38;9.77;;;;;;;8.79;77.26;99077.13;5569858;32;33782;-54
2023/12/21 15:14:04;;;;;;;14.75;10.77;;;;;;;8.74;81.25;99063.06;5569976;32;34368;-53
2023/12/21 15:17:07;;;;;;;15.45;10.45;;;;;;;8.77;80.18;99057.91;5569855;32;34344;-53
2023/12/21 15:20:09;;;;;;;15.02;11.02;;;;;;;8.70;79.33;99063.66;5569696;32;33601;-54
2023/12/21 15:23:12;;;;;;;13.82;9.93;;;;;;;8.64;80.66;99064.88;5569482;32;33713;-53
2023/12/21 15:26:15;;;;;;;13.80;10.30;;;;;;;8.64;79.46;99043.50;5569814;32;33664;-54
2023/12/21 15:29:18;;;;;;;12.95;9.52;;;;;;;8.70;80.61;99042.28;5569676;32;34414;-54
2023/12/21 15:32:20;;;;;;;17.05;10.02;;;;;;;8.74;79.28;99031.00;5569798;32;34372;-53
2023/12/21 15:35:22;;;;;;;12.95;10.10;;;;;;;8.66;82.72;99033.31;5568245;32;33754;-54
2023/12/21 15:38:25;;;;;;;15.73;10.90;;;;;;;8.62;84.35;99039.56;5569827;32;33730;-55
2023/12/21 15:41:27;;;;;;;15.45;11.52;;;;;;;8.69;82.79;99034.59;5569653;32;33701;-55
2023/12/21 15:44:29;;;;;;;17.85;11.43;;;;;;;8.57;83.27;99028.97;5569596;32;34236;-53
2023/12/21 15:47:32;;;;;;;16.20;12.10;;;;;;;8.66;83.05;99027.16;5568542;32;34365;-53
2023/12/21 15:50:34;;;;;;;14.65;11.05;;;;;;;8.56;83.58;99014.03;5569335;32;33661;-53
2023/12/21 15:53:37;;;;;;;15.00;11.07;;;;;;;8.54;83.19;98995.63;5569671;32;33817;-53
2023/12/21 15:56:40;;;;;;;17.02;12.48;;;;;;;8.60;86.71;98994.44;5569367;32;33644;-53
2023/12/21 15:59:42;;;;;;;15.75;11.55;;;;;;;8.55;84.14;98994.56;5569531;32;33818;-53
2023/12/21 16:02:45;;;;;;;17.62;12.23;;;;;;;8.49;84.84;98979.72;5569408;32;33790;-53
2023/12/21 16:05:47;;;;;;;17.55;12.55;;;;;;;8.54;85.90;98971.59;5569274;32;33651;-53
2023/12/21 16:08:50;;;;;;;18.27;13.13;;;;;;;8.46;88.76;98954.41;5569463;32;33766;-53
2023/12/21 16:11:53;;;;;;;17.58;12.95;;;;;;;8.53;89.16;98948.66;5569481;32;34301;-53
2023/12/21 16:14:55;;;;;;;17.45;12.90;;;;;;;8.49;87.45;98950.34;5568550;32;33574;-53
2023/12/21 16:17:58;;;;;;;17.77;12.75;;;;;;;8.36;87.49;98951.91;5569265;32;33561;-53
2023/12/21 16:21:00;;;;;;;18.02;13.30;;;;;;;8.37;89.33;98942.03;5569189;32;33710;-53
2023/12/21 16:24:03;;;;;;;17.67;13.40;;;;;;;8.40;94.89;98934.22;5569222;32;33748;-53
